Grand Junction, CO

10:31 AM MST on December 21, 2014 (GMT -0700)
Chipeta Ave south of Washington Park | Change Station
CLOSE
Current Station
Personal Weather Station
Location: Grand Junction, CO
Elevation: 4603 ft
Nearby Weather Stations

Elev 4603 ft 39.07 °N, 108.56 °W | Updated 6 seconds ago

Snow
Snow
34.2 °F
Feels Like 34 °F
N
0.0
Wind Variable Wind from South
Gusts 3.0 mph

Today
High -- | Low -- °F
--% Chance of Precip.
Yesterday
High -- | Low -- °F
Precip. -- in
7:29 AM 4:55 PM
Waning Crescent, 0% visible
Pressure 30.04 in
Visibility 2.0 miles
Clouds Mostly Cloudy 200 ft
Overcast 2400 ft
Windchill 34 °F
Dew Point 32 °F
Humidity 93%
Rainfall 0.02 in
Snow Depth Not available.
UV 1 out of 12
Pollen .10 out of 12
Air Quality Not available.
Flu Activity Not available.
SPECI KGJT 211727Z 00000KT 2SM BR BKN002 OVC024 01/01 A3004 RMK AO2 SNE25 P0001 T00060006

More Conditions Fewer Conditions

Pressure 30.04 in
Visibility 2.0 miles
Clouds Mostly Cloudy 200 ft
Overcast 2400 ft
Windchill 34 °F
Dew Point 32 °F
Humidity 93%
Rainfall 0.02 in
Snow Depth Not available.
UV 1 out of 12
Pollen .10 out of 12
Air Quality Not available.
Flu Activity Not available.
SPECI KGJT 211727Z 00000KT 2SM BR BKN002 OVC024 01/01 A3004 RMK AO2 SNE25 P0001 T00060006

More Conditions Fewer Conditions

10-Day Weather Forecast

Almanac

Astronomy

Dec. 21, 2014 Rise Set
Actual Time
Civil Twilight
Nautical Twilight
Astronomical Twilight
Moon
Length of Visible Light
Length of Day
Tomorrow will be .
, % of the Moon is Illuminated

Today's Extremes

State Highs State Lows

Community

WunderPhotos

Upload Photos

1,779,431 photos uploaded!

WunderBlogs® & News

Nearby

Air Quality

  Air Quality AQ Index Pollutant
Not available.

Snow Depth

Station Depth Elevation

Earthquake Activity

City Distance Mag. Time & Date
Minimum magnitude displayed is 2.5.

Coastal Water Temperatures

Place Temperature

Nearby Weather Stations